Time;durP1;ratioP1;P1;durP2;ratioP2;P2;SDS_P1;SDS_P2;PMS_P1;PMS_P2;Temp;Humidity;BMP_temperature;BMP_pressure;BME280_temperature;BME280_humidity;BME280_pressure;Samples;Min_cycle;Max_cycle;Signal;HPM_P1;HPM_P2
2023/01/12 00:01:17;;;;;;;52.10;8.40;;;;;;;;;;5038705;28;20094;-72
2023/01/12 00:03:42;;;;;;;69.95;9.38;;;;;;;;;;5022944;28;20043;-73
2023/01/12 00:06:08;;;;;;;64.80;9.70;;;;;;;;;;5040691;28;20032;-73
2023/01/12 00:08:35;;;;;;;66.78;9.48;;;;;;;;;;5039752;28;20033;-72
2023/01/12 00:11:01;;;;;;;57.17;8.77;;;;;;;;;;5038782;28;20029;-72
2023/01/12 00:13:30;;;;;;;68.20;10.07;;;;;;;;;;5041504;28;20513;-71
2023/01/12 00:18:40;;;;;;;57.55;8.40;;;;;;;;;;5041391;28;20296;-72
2023/01/12 00:21:09;;;;;;;62.33;8.65;;;;;;;;;;5041667;28;20036;-72
2023/01/12 00:23:34;;;;;;;58.75;9.00;;;;;;;;;;5040994;28;20037;-73
2023/01/12 00:26:00;;;;;;;64.55;9.63;;;;;;;;;;5041136;28;20552;-73
2023/01/12 00:28:27;;;;;;;64.05;9.00;;;;;;;;;;5038423;28;20036;-73
2023/01/12 00:30:58;;;;;;;60.83;9.13;;;;;;;;;;5041149;28;20102;-73
2023/01/12 00:33:23;;;;;;;61.50;9.75;;;;;;;;;;5039942;28;20054;-73
2023/01/12 00:35:49;;;;;;;63.17;9.43;;;;;;;;;;5019290;28;20041;-72
2023/01/12 00:38:14;;;;;;;71.93;9.63;;;;;;;;;;5021178;28;20048;-73
2023/01/12 00:40:42;;;;;;;59.85;9.23;;;;;;;;;;5020949;28;20434;-72
2023/01/12 00:45:55;;;;;;;62.70;9.20;;;;;;;;;;5023522;28;20148;-72
2023/01/12 00:48:21;;;;;;;55.78;7.90;;;;;;;;;;5040203;28;20584;-72
2023/01/12 00:50:47;;;;;;;57.65;8.82;;;;;;;;;;5040858;28;20036;-71
2023/01/12 00:53:12;;;;;;;51.70;7.63;;;;;;;;;;5040657;28;20028;-73
2023/01/12 00:55:38;;;;;;;58.88;8.43;;;;;;;;;;5041009;28;20059;-72
2023/01/12 00:58:04;;;;;;;57.38;8.63;;;;;;;;;;5040992;28;20360;-72
2023/01/12 01:00:31;;;;;;;64.55;9.70;;;;;;;;;;5041520;28;20039;-73
2023/01/12 01:02:57;;;;;;;58.35;9.07;;;;;;;;;;5042933;28;20036;-72
2023/01/12 01:05:22;;;;;;;72.50;10.10;;;;;;;;;;5043854;28;20025;-72
2023/01/12 01:07:47;;;;;;;59.80;8.43;;;;;;;;;;5045750;28;20048;-74
2023/01/12 01:10:14;;;;;;;72.00;9.00;;;;;;;;;;5053415;28;20033;-74
2023/01/12 01:12:40;;;;;;;72.88;10.00;;;;;;;;;;5053683;28;20481;-75
2023/01/12 01:15:05;;;;;;;69.00;9.52;;;;;;;;;;5051101;28;20036;-73
2023/01/12 01:17:30;;;;;;;83.72;11.13;;;;;;;;;;5044430;28;20143;-73
2023/01/12 01:19:56;;;;;;;80.93;10.63;;;;;;;;;;5042104;28;20051;-73
2023/01/12 01:22:24;;;;;;;84.15;10.30;;;;;;;;;;5044325;28;20201;-72
2023/01/12 01:24:49;;;;;;;70.82;10.35;;;;;;;;;;5041867;28;20052;-73
2023/01/12 01:27:14;;;;;;;77.00;10.40;;;;;;;;;;5026270;28;20032;-72
2023/01/12 01:29:40;;;;;;;86.10;11.15;;;;;;;;;;5044191;28;20040;-71
2023/01/12 01:32:06;;;;;;;85.50;12.63;;;;;;;;;;5042798;28;20778;-72
2023/01/12 01:34:31;;;;;;;82.93;10.48;;;;;;;;;;5037123;28;20056;-73
2023/01/12 01:36:59;;;;;;;77.75;11.15;;;;;;;;;;5040032;28;20087;-72
2023/01/12 01:39:24;;;;;;;94.97;11.65;;;;;;;;;;5035530;28;20029;-73
2023/01/12 01:41:50;;;;;;;94.03;12.88;;;;;;;;;;5037790;28;20482;-72
2023/01/12 01:44:28;;;;;;;87.40;11.65;;;;;;;;;;5034090;28;20482;-72
2023/01/12 01:47:13;;;;;;;89.28;12.32;;;;;;;;;;5029474;28;20029;-72
2023/01/12 01:49:46;;;;;;;98.28;12.18;;;;;;;;;;5015950;28;20032;-71
2023/01/12 01:52:17;;;;;;;101.10;13.43;;;;;;;;;;5012786;28;20029;-72
2023/01/12 01:54:46;;;;;;;106.03;13.35;;;;;;;;;;5014133;28;20505;-71
2023/01/12 01:57:12;;;;;;;112.00;14.63;;;;;;;;;;5009847;28;20034;-71
2023/01/12 01:59:40;;;;;;;110.40;14.02;;;;;;;;;;5003969;28;20033;-72
2023/01/12 02:02:05;;;;;;;118.25;14.68;;;;;;;;;;5003472;28;20033;-71
2023/01/12 02:04:31;;;;;;;135.65;13.52;;;;;;;;;;5034917;28;20029;-72
2023/01/12 02:06:57;;;;;;;117.30;14.13;;;;;;;;;;5000843;28;20034;-72
2023/01/12 02:09:27;;;;;;;109.53;13.98;;;;;;;;;;5003719;28;20072;-72
2023/01/12 02:17:27;;;;;;;120.35;13.85;;;;;;;;;;5003392;28;20567;-72
2023/01/12 02:20:12;;;;;;;99.65;12.73;;;;;;;;;;5003091;28;20036;-72
2023/01/12 02:22:38;;;;;;;84.55;11.50;;;;;;;;;;5002752;28;20026;-70
2023/01/12 02:25:24;;;;;;;100.05;12.82;;;;;;;;;;5000941;28;20437;-71
2023/01/12 02:27:51;;;;;;;93.53;12.00;;;;;;;;;;4988727;28;20417;-71
2023/01/12 02:30:19;;;;;;;96.22;11.73;;;;;;;;;;5001516;28;20063;-70
2023/01/12 02:33:03;;;;;;;83.57;11.52;;;;;;;;;;5020863;28;20542;-71
2023/01/12 02:35:41;;;;;;;84.20;10.98;;;;;;;;;;5000932;28;20034;-72
2023/01/12 02:38:17;;;;;;;83.70;12.10;;;;;;;;;;5018100;28;20041;-71
2023/01/12 02:40:45;;;;;;;78.35;12.07;;;;;;;;;;5023087;28;20325;-71
2023/01/12 02:43:19;;;;;;;89.97;10.40;;;;;;;;;;5023344;28;20351;-71
2023/01/12 02:45:46;;;;;;;83.22;11.63;;;;;;;;;;5022863;28;20049;-72
2023/01/12 02:48:20;;;;;;;87.88;10.90;;;;;;;;;;5022716;28;20056;-72
2023/01/12 02:50:56;;;;;;;97.45;12.77;;;;;;;;;;5020575;28;20513;-72
2023/01/12 02:53:26;;;;;;;79.05;10.65;;;;;;;;;;5022642;28;20290;-72
2023/01/12 02:55:53;;;;;;;79.32;11.85;;;;;;;;;;5022215;28;20048;-72
2023/01/12 02:58:24;;;;;;;73.63;9.35;;;;;;;;;;5022576;28;20033;-72
2023/01/12 03:00:53;;;;;;;92.43;11.93;;;;;;;;;;5020264;28;20384;-71
2023/01/12 03:03:24;;;;;;;100.10;12.63;;;;;;;;;;5000874;28;20041;-71
2023/01/12 03:05:50;;;;;;;110.57;12.90;;;;;;;;;;5002179;28;20025;-70
2023/01/12 03:08:19;;;;;;;95.35;12.38;;;;;;;;;;5003068;28;20117;-70
2023/01/12 03:11:00;;;;;;;86.60;12.75;;;;;;;;;;5002433;28;20209;-70
2023/01/12 03:13:27;;;;;;;105.63;11.23;;;;;;;;;;5017707;28;20033;-69
2023/01/12 03:15:54;;;;;;;89.65;11.80;;;;;;;;;;5022045;28;20037;-69
2023/01/12 03:18:27;;;;;;;77.55;10.45;;;;;;;;;;5022683;28;20166;-70
2023/01/12 03:20:54;;;;;;;81.90;9.88;;;;;;;;;;5021466;28;20524;-72
2023/01/12 03:23:26;;;;;;;106.00;14.43;;;;;;;;;;5021035;28;20158;-71
2023/01/12 03:25:53;;;;;;;104.80;15.75;;;;;;;;;;5021751;28;20501;-71
2023/01/12 03:28:20;;;;;;;102.90;15.95;;;;;;;;;;5022733;28;20041;-71
2023/01/12 03:30:58;;;;;;;109.72;16.23;;;;;;;;;;5020003;28;20648;-71
2023/01/12 03:33:24;;;;;;;100.28;17.38;;;;;;;;;;5021723;28;20108;-73
2023/01/12 03:35:58;;;;;;;68.78;13.55;;;;;;;;;;5020277;28;20037;-71
2023/01/12 03:38:26;;;;;;;79.32;13.70;;;;;;;;;;5021528;28;20052;-71
2023/01/12 03:40:58;;;;;;;67.43;14.18;;;;;;;;;;5022183;28;20560;-71
2023/01/12 03:43:30;;;;;;;66.45;11.43;;;;;;;;;;5021798;28;20043;-71
2023/01/12 03:46:03;;;;;;;66.70;11.45;;;;;;;;;;5019415;28;20072;-70
2023/01/12 03:48:32;;;;;;;76.85;14.93;;;;;;;;;;5018936;28;20642;-72
2023/01/12 03:50:59;;;;;;;66.10;12.82;;;;;;;;;;5026773;28;20041;-72
2023/01/12 03:53:25;;;;;;;68.47;12.55;;;;;;;;;;5025157;28;20836;-72
2023/01/12 03:55:53;;;;;;;57.35;11.70;;;;;;;;;;5022430;28;20176;-72
2023/01/12 03:58:19;;;;;;;49.80;11.15;;;;;;;;;;5024589;28;20060;-71
2023/01/12 04:00:44;;;;;;;49.05;9.30;;;;;;;;;;5025490;28;20198;-72
2023/01/12 04:03:11;;;;;;;43.20;8.82;;;;;;;;;;5026092;28;20183;-72
2023/01/12 04:05:37;;;;;;;43.88;8.07;;;;;;;;;;5025313;28;20659;-72
2023/01/12 04:08:02;;;;;;;27.58;6.10;;;;;;;;;;5026621;28;20483;-71
2023/01/12 04:10:28;;;;;;;40.13;6.63;;;;;;;;;;5027471;28;20066;-72
2023/01/12 04:12:54;;;;;;;33.92;8.57;;;;;;;;;;5028037;28;20059;-71
2023/01/12 04:15:19;;;;;;;33.08;5.68;;;;;;;;;;5026989;28;20405;-72
2023/01/12 04:17:45;;;;;;;44.35;6.15;;;;;;;;;;5024460;28;20045;-71
2023/01/12 04:20:10;;;;;;;37.55;5.72;;;;;;;;;;5027151;28;20059;-73
2023/01/12 04:22:41;;;;;;;40.90;6.13;;;;;;;;;;5026888;28;26051;-73
2023/01/12 04:25:07;;;;;;;45.45;6.30;;;;;;;;;;5026343;28;20052;-70
2023/01/12 04:27:33;;;;;;;44.63;5.68;;;;;;;;;;5025958;28;20555;-72
2023/01/12 04:29:58;;;;;;;43.30;6.15;;;;;;;;;;5024030;28;20162;-70
2023/01/12 04:32:24;;;;;;;48.40;5.90;;;;;;;;;;5024924;28;20102;-71
2023/01/12 04:34:49;;;;;;;49.10;5.90;;;;;;;;;;5024732;28;20051;-72
2023/01/12 04:37:14;;;;;;;47.55;6.35;;;;;;;;;;5027382;28;20037;-71
2023/01/12 04:39:40;;;;;;;49.10;6.18;;;;;;;;;;5028282;28;20068;-71
2023/01/12 04:42:59;;;;;;;52.42;7.35;;;;;;;;;;5027328;28;20033;-71
2023/01/12 04:44:50;;;;;;;48.83;7.45;;;;;;;;;;5025743;28;20177;-71
2023/01/12 04:47:18;;;;;;;56.50;8.00;;;;;;;;;;5074636;28;20079;-71
2023/01/12 04:49:43;;;;;;;59.22;8.15;;;;;;;;;;5047849;28;20474;-72
2023/01/12 04:52:08;;;;;;;73.95;9.35;;;;;;;;;;5046311;28;20482;-71
2023/01/12 04:54:33;;;;;;;71.07;10.52;;;;;;;;;;5048412;28;20028;-72
2023/01/12 04:56:59;;;;;;;69.35;9.95;;;;;;;;;;5048338;28;20128;-71
2023/01/12 04:59:24;;;;;;;88.60;11.52;;;;;;;;;;5029343;28;20028;-71
2023/01/12 05:01:49;;;;;;;96.03;11.18;;;;;;;;;;5048004;28;20106;-71
2023/01/12 05:04:15;;;;;;;98.07;12.43;;;;;;;;;;5046780;28;20569;-71
2023/01/12 05:06:40;;;;;;;91.72;11.27;;;;;;;;;;5047253;28;20238;-71
2023/01/12 05:11:53;;;;;;;90.75;12.13;;;;;;;;;;5067234;28;20503;-69
2023/01/12 05:14:18;;;;;;;98.55;12.52;;;;;;;;;;5046628;28;20304;-71
2023/01/12 05:16:46;;;;;;;89.63;13.90;;;;;;;;;;5045813;28;20530;-70
2023/01/12 05:19:11;;;;;;;101.93;13.15;;;;;;;;;;5043375;28;20303;-71
2023/01/12 05:21:37;;;;;;;115.68;15.80;;;;;;;;;;5046338;28;20044;-71
2023/01/12 05:24:03;;;;;;;114.65;16.10;;;;;;;;;;5046010;28;20299;-70
2023/01/12 05:26:28;;;;;;;122.05;17.58;;;;;;;;;;5044868;28;20040;-72
2023/01/12 05:28:54;;;;;;;103.10;15.10;;;;;;;;;;5007599;28;20033;-71
2023/01/12 05:31:21;;;;;;;118.60;16.85;;;;;;;;;;5004520;28;20080;-71
2023/01/12 05:33:47;;;;;;;120.55;18.33;;;;;;;;;;5004285;28;20080;-72
2023/01/12 05:36:14;;;;;;;119.05;16.23;;;;;;;;;;5004863;28;20661;-70
2023/01/12 05:38:40;;;;;;;123.20;17.45;;;;;;;;;;5004118;28;20057;-72
2023/01/12 05:41:06;;;;;;;110.40;15.40;;;;;;;;;;5004652;28;20037;-71
2023/01/12 05:43:49;;;;;;;116.75;16.08;;;;;;;;;;5004064;28;20029;-72
2023/01/12 05:46:15;;;;;;;108.85;15.13;;;;;;;;;;5003236;28;20041;-72
2023/01/12 05:48:41;;;;;;;104.60;15.27;;;;;;;;;;5003753;28;20029;-72
2023/01/12 05:51:07;;;;;;;116.80;15.82;;;;;;;;;;5002047;28;20512;-71
2023/01/12 05:53:33;;;;;;;108.05;14.60;;;;;;;;;;5002127;28;20526;-71
2023/01/12 05:56:00;;;;;;;121.38;16.33;;;;;;;;;;5009542;28;20033;-71
2023/01/12 05:58:29;;;;;;;138.63;16.88;;;;;;;;;;5023507;28;20191;-71
2023/01/12 06:00:54;;;;;;;119.97;16.48;;;;;;;;;;5023539;28;20748;-70
2023/01/12 06:03:19;;;;;;;119.65;16.80;;;;;;;;;;5023587;28;20047;-73
2023/01/12 06:05:50;;;;;;;128.55;18.58;;;;;;;;;;5022102;28;20025;-72
2023/01/12 06:08:16;;;;;;;132.95;17.90;;;;;;;;;;5023378;28;20616;-71
2023/01/12 06:10:41;;;;;;;136.43;18.40;;;;;;;;;;5023930;28;20029;-72
2023/01/12 06:15:51;;;;;;;140.50;18.75;;;;;;;;;;5022985;28;20033;-73
2023/01/12 06:18:17;;;;;;;123.53;17.85;;;;;;;;;;5021922;28;20422;-72
2023/01/12 06:20:43;;;;;;;126.50;18.25;;;;;;;;;;5021824;28;20453;-72
2023/01/12 06:23:08;;;;;;;122.47;16.77;;;;;;;;;;5022135;28;20260;-72
2023/01/12 06:25:33;;;;;;;114.82;16.70;;;;;;;;;;5022763;28;20036;-71
2023/01/12 06:27:59;;;;;;;115.10;17.70;;;;;;;;;;5021809;28;20272;-72
2023/01/12 06:30:25;;;;;;;130.73;19.55;;;;;;;;;;5022987;28;20582;-73
2023/01/12 06:32:50;;;;;;;114.70;15.35;;;;;;;;;;5023945;28;20410;-71
2023/01/12 06:35:16;;;;;;;114.60;17.50;;;;;;;;;;5023536;28;20822;-72
2023/01/12 06:37:41;;;;;;;152.48;20.67;;;;;;;;;;5023806;28;20495;-73
2023/01/12 06:40:07;;;;;;;139.27;18.95;;;;;;;;;;5022850;28;20316;-73
2023/01/12 06:42:32;;;;;;;114.07;15.70;;;;;;;;;;5023155;28;20032;-71
2023/01/12 06:44:59;;;;;;;112.15;16.10;;;;;;;;;;5004003;28;20021;-71
2023/01/12 06:47:24;;;;;;;127.00;15.45;;;;;;;;;;5021159;28;20564;-72
2023/01/12 06:49:50;;;;;;;111.25;16.17;;;;;;;;;;5022587;28;20093;-73
2023/01/12 06:52:23;;;;;;;94.78;15.45;;;;;;;;;;5022871;28;20033;-72
2023/01/12 06:54:48;;;;;;;123.35;16.00;;;;;;;;;;5022533;28;20224;-72
2023/01/12 06:57:14;;;;;;;115.88;15.10;;;;;;;;;;5022856;28;20033;-73
2023/01/12 06:59:40;;;;;;;112.13;15.27;;;;;;;;;;5004003;28;20025;-72
2023/01/12 07:02:10;;;;;;;112.53;15.80;;;;;;;;;;5021063;28;20021;-72
2023/01/12 07:04:36;;;;;;;109.60;15.90;;;;;;;;;;5014883;28;20123;-73
2023/01/12 07:07:05;;;;;;;113.45;14.57;;;;;;;;;;5022800;28;20133;-70
2023/01/12 07:09:31;;;;;;;115.78;15.93;;;;;;;;;;5020923;28;20111;-71
2023/01/12 07:11:56;;;;;;;104.30;14.95;;;;;;;;;;5022827;28;20243;-72
2023/01/12 07:14:21;;;;;;;120.03;17.02;;;;;;;;;;5022013;28;20444;-71
2023/01/12 07:16:47;;;;;;;100.65;13.80;;;;;;;;;;5022280;28;20029;-71
2023/01/12 07:19:12;;;;;;;112.28;16.73;;;;;;;;;;5003929;28;20064;-71
2023/01/12 07:21:38;;;;;;;125.53;16.33;;;;;;;;;;5019816;28;20116;-71
2023/01/12 07:24:03;;;;;;;96.60;14.07;;;;;;;;;;5020524;28;20078;-71
2023/01/12 07:26:28;;;;;;;116.70;14.75;;;;;;;;;;5022311;28;20093;-71
2023/01/12 07:28:54;;;;;;;107.22;16.50;;;;;;;;;;5021343;28;20128;-72
2023/01/12 07:31:22;;;;;;;98.72;14.85;;;;;;;;;;5021880;28;20371;-70
2023/01/12 07:33:49;;;;;;;95.07;13.73;;;;;;;;;;5022913;28;20037;-70
2023/01/12 07:36:15;;;;;;;103.03;13.48;;;;;;;;;;5022275;28;20032;-71
2023/01/12 07:38:42;;;;;;;95.72;14.82;;;;;;;;;;5009318;28;20572;-72
2023/01/12 07:42:22;;;;;;;131.45;17.70;;;;;;;;;;5022960;28;20135;-71
2023/01/12 07:43:52;;;;;;;105.63;16.00;;;;;;;;;;5021190;28;20489;-71
2023/01/12 07:46:17;;;;;;;99.88;16.92;;;;;;;;;;5028095;28;20039;-70
2023/01/12 07:48:43;;;;;;;109.70;15.77;;;;;;;;;;5039784;28;20272;-72
2023/01/12 07:51:08;;;;;;;113.03;15.48;;;;;;;;;;5040005;28;20035;-70
2023/01/12 07:53:34;;;;;;;99.43;16.55;;;;;;;;;;5042186;28;20032;-72
2023/01/12 07:56:01;;;;;;;102.78;15.57;;;;;;;;;;5041978;28;20036;-71
2023/01/12 07:58:29;;;;;;;85.20;13.85;;;;;;;;;;5039599;28;20515;-71
2023/01/12 08:00:59;;;;;;;86.82;13.65;;;;;;;;;;5041777;28;20045;-71
2023/01/12 08:03:25;;;;;;;102.07;13.90;;;;;;;;;;5041622;28;20044;-72
2023/01/12 08:05:50;;;;;;;81.22;13.95;;;;;;;;;;5041399;28;20106;-73
2023/01/12 08:08:16;;;;;;;80.03;13.50;;;;;;;;;;5041787;28;20120;-72
2023/01/12 08:10:46;;;;;;;81.30;11.25;;;;;;;;;;5040777;28;20033;-73
2023/01/12 08:13:11;;;;;;;69.65;10.43;;;;;;;;;;5039730;28;20108;-72
2023/01/12 08:15:40;;;;;;;76.05;11.25;;;;;;;;;;5039665;28;20090;-72
2023/01/12 08:18:07;;;;;;;74.72;12.05;;;;;;;;;;5041312;28;20044;-71
2023/01/12 08:20:34;;;;;;;69.35;10.57;;;;;;;;;;5044265;28;20325;-72
2023/01/12 08:23:03;;;;;;;85.00;12.13;;;;;;;;;;5037923;28;20242;-71
2023/01/12 08:25:31;;;;;;;71.90;10.80;;;;;;;;;;5004488;28;20332;-72
2023/01/12 08:27:59;;;;;;;85.43;12.63;;;;;;;;;;5002853;28;20049;-72
2023/01/12 08:30:24;;;;;;;75.47;11.90;;;;;;;;;;5003804;28;20459;-71
2023/01/12 08:32:50;;;;;;;79.10;12.43;;;;;;;;;;5003003;28;20048;-71
2023/01/12 08:35:18;;;;;;;69.35;11.10;;;;;;;;;;5016412;28;20029;-72
2023/01/12 08:37:47;;;;;;;78.05;11.05;;;;;;;;;;5021682;28;20418;-72
2023/01/12 08:40:13;;;;;;;72.55;12.43;;;;;;;;;;5019544;28;20376;-73
2023/01/12 08:42:38;;;;;;;83.57;13.07;;;;;;;;;;5021919;28;20257;-71
2023/01/12 08:45:07;;;;;;;72.10;10.60;;;;;;;;;;5003051;28;20480;-72
2023/01/12 08:47:32;;;;;;;73.07;11.13;;;;;;;;;;5021402;28;20055;-73
2023/01/12 08:49:59;;;;;;;90.78;13.55;;;;;;;;;;5021217;28;20025;-72
2023/01/12 08:52:24;;;;;;;96.85;15.25;;;;;;;;;;5020780;28;20060;-73
2023/01/12 08:54:50;;;;;;;75.45;11.10;;;;;;;;;;5022788;28;20517;-72
2023/01/12 08:57:15;;;;;;;94.22;13.50;;;;;;;;;;5022584;28;20040;-71
2023/01/12 08:59:41;;;;;;;100.43;14.65;;;;;;;;;;5021669;28;20021;-72
2023/01/12 09:02:06;;;;;;;98.18;14.20;;;;;;;;;;5002587;28;20028;-72
2023/01/12 09:04:31;;;;;;;95.93;14.70;;;;;;;;;;5024588;28;20376;-72
2023/01/12 09:06:57;;;;;;;84.72;13.45;;;;;;;;;;5024059;28;20099;-72
2023/01/12 09:09:22;;;;;;;95.65;13.90;;;;;;;;;;5023261;28;20215;-71
2023/01/12 09:11:49;;;;;;;105.35;14.57;;;;;;;;;;5023197;28;20266;-72
2023/01/12 09:14:15;;;;;;;95.07;14.25;;;;;;;;;;5022000;28;20133;-73
2023/01/12 09:16:40;;;;;;;81.00;14.10;;;;;;;;;;5025821;28;20029;-73
2023/01/12 09:19:06;;;;;;;94.43;13.65;;;;;;;;;;5022995;28;20045;-72
2023/01/12 09:21:35;;;;;;;98.88;13.05;;;;;;;;;;5022531;28;20040;-71
2023/01/12 09:24:02;;;;;;;81.82;14.05;;;;;;;;;;5026715;28;20061;-71
2023/01/12 09:26:30;;;;;;;83.40;13.02;;;;;;;;;;5007131;28;20951;-73
2023/01/12 09:28:57;;;;;;;86.60;11.95;;;;;;;;;;5026813;28;20108;-73
2023/01/12 09:31:22;;;;;;;82.57;12.52;;;;;;;;;;5027162;28;20521;-73
2023/01/12 09:33:48;;;;;;;85.22;13.45;;;;;;;;;;5024920;28;20083;-73
2023/01/12 09:36:15;;;;;;;89.72;14.68;;;;;;;;;;5026938;28;20374;-71
2023/01/12 09:38:41;;;;;;;82.43;11.80;;;;;;;;;;5023629;28;20719;-72
2023/01/12 09:46:57;;;;;;;77.38;12.57;;;;;;;;;;5024610;28;20257;-71
2023/01/12 09:47:05;;;;;;;84.65;11.77;;;;;;;;;;5024830;28;20032;-73
2023/01/12 09:49:39;;;;;;;89.18;13.30;;;;;;;;;;5023180;28;20238;-72
2023/01/12 09:52:12;;;;;;;105.65;14.05;;;;;;;;;;5024501;28;20050;-73
2023/01/12 09:54:37;;;;;;;95.25;13.70;;;;;;;;;;5024105;28;20076;-73
2023/01/12 09:57:17;;;;;;;90.15;13.07;;;;;;;;;;5022299;28;20040;-73
2023/01/12 09:59:43;;;;;;;75.95;11.88;;;;;;;;;;5024113;28;20036;-72
2023/01/12 10:02:10;;;;;;;77.68;12.57;;;;;;;;;;5022428;28;20489;-73
2023/01/12 10:04:36;;;;;;;75.68;12.68;;;;;;;;;;5002648;28;20440;-73
2023/01/12 10:07:04;;;;;;;72.07;11.98;;;;;;;;;;5003643;28;20529;-72
2023/01/12 10:09:29;;;;;;;88.28;12.95;;;;;;;;;;5003933;28;20030;-72
2023/01/12 10:12:03;;;;;;;81.05;12.48;;;;;;;;;;5001662;28;20083;-72
2023/01/12 10:14:33;;;;;;;70.78;11.68;;;;;;;;;;5021068;28;20516;-73
2023/01/12 10:17:17;;;;;;;70.82;11.35;;;;;;;;;;5023920;28;20052;-73
2023/01/12 10:20:03;;;;;;;73.95;11.48;;;;;;;;;;5023094;28;20059;-73
2023/01/12 10:22:36;;;;;;;94.05;12.00;;;;;;;;;;4998934;28;20061;-72
2023/01/12 10:25:22;;;;;;;88.00;12.32;;;;;;;;;;5002488;28;20117;-71
2023/01/12 10:27:51;;;;;;;89.03;13.57;;;;;;;;;;5002919;28;20724;-72
2023/01/12 10:30:19;;;;;;;83.85;12.98;;;;;;;;;;5003540;28;20036;-72
2023/01/12 10:32:45;;;;;;;83.88;14.02;;;;;;;;;;5003724;28;20033;-73
2023/01/12 10:35:15;;;;;;;81.95;13.18;;;;;;;;;;5001939;28;20036;-72
2023/01/12 10:37:48;;;;;;;99.07;13.60;;;;;;;;;;5003192;28;20419;-72
2023/01/12 10:40:26;;;;;;;83.75;13.23;;;;;;;;;;4983841;28;20646;-73
2023/01/12 10:43:18;;;;;;;108.20;15.20;;;;;;;;;;5004112;28;20800;-72
2023/01/12 10:45:44;;;;;;;94.78;13.68;;;;;;;;;;5034794;28;20030;-72
2023/01/12 10:48:18;;;;;;;91.82;11.93;;;;;;;;;;5003324;28;20133;-72
2023/01/12 10:50:54;;;;;;;80.45;12.07;;;;;;;;;;5001044;28;20037;-73
2023/01/12 10:53:20;;;;;;;98.05;11.65;;;;;;;;;;5001046;28;20344;-73
2023/01/12 10:55:46;;;;;;;90.65;12.52;;;;;;;;;;4985136;28;20456;-73
2023/01/12 10:58:29;;;;;;;95.88;13.82;;;;;;;;;;4990871;28;20331;-73
2023/01/12 11:00:55;;;;;;;84.80;11.63;;;;;;;;;;5003092;28;20040;-73
2023/01/12 11:03:40;;;;;;;88.07;13.32;;;;;;;;;;5003436;28;20204;-73
2023/01/12 11:06:20;;;;;;;72.80;10.60;;;;;;;;;;5000708;28;20035;-73
2023/01/12 11:08:45;;;;;;;72.50;11.95;;;;;;;;;;5003593;28;20501;-72
2023/01/12 11:11:15;;;;;;;100.78;13.13;;;;;;;;;;5004185;28;20029;-73
2023/01/12 11:13:41;;;;;;;83.03;12.30;;;;;;;;;;4988181;28;20053;-72
2023/01/12 11:16:12;;;;;;;81.43;11.63;;;;;;;;;;5001846;28;20295;-74
2023/01/12 11:18:39;;;;;;;94.82;13.55;;;;;;;;;;5005408;28;20042;-73
2023/01/12 11:21:06;;;;;;;84.82;13.38;;;;;;;;;;5023459;28;20441;-73
2023/01/12 11:23:44;;;;;;;83.25;12.13;;;;;;;;;;5025889;28;20488;-76
2023/01/12 11:26:15;;;;;;;72.88;10.50;;;;;;;;;;5023960;28;20044;-74
2023/01/12 11:28:45;;;;;;;76.10;10.75;;;;;;;;;;5025923;28;20105;-74
2023/01/12 11:31:24;;;;;;;84.25;11.55;;;;;;;;;;5024516;28;20564;-72
2023/01/12 11:34:10;;;;;;;82.28;12.80;;;;;;;;;;5022724;28;20060;-73
2023/01/12 11:36:42;;;;;;;71.15;12.05;;;;;;;;;;5024271;28;20482;-73
2023/01/12 11:39:12;;;;;;;82.45;12.65;;;;;;;;;;5023941;28;20162;-73
2023/01/12 11:41:40;;;;;;;94.60;13.00;;;;;;;;;;5021101;28;20560;-73
2023/01/12 11:44:17;;;;;;;80.68;12.27;;;;;;;;;;5023161;28;20063;-73
2023/01/12 11:46:48;;;;;;;72.22;11.98;;;;;;;;;;5020494;28;20072;-73
2023/01/12 11:49:22;;;;;;;70.15;11.57;;;;;;;;;;5023098;28;20444;-73
2023/01/12 11:51:50;;;;;;;70.57;10.57;;;;;;;;;;5025203;28;20035;-72
2023/01/12 11:54:16;;;;;;;72.13;10.88;;;;;;;;;;5022440;28;20333;-72
2023/01/12 11:56:52;;;;;;;88.57;12.05;;;;;;;;;;5024928;28;20076;-73
2023/01/12 11:59:38;;;;;;;77.15;10.43;;;;;;;;;;5018740;28;20437;-72
2023/01/12 12:02:13;;;;;;;79.45;10.82;;;;;;;;;;5021289;28;20433;-73
2023/01/12 12:04:56;;;;;;;65.43;9.98;;;;;;;;;;5020033;28;20588;-73
2023/01/12 12:07:44;;;;;;;70.25;10.25;;;;;;;;;;5020744;28;20025;-73
2023/01/12 12:10:24;;;;;;;83.18;11.80;;;;;;;;;;5020337;28;20119;-74
2023/01/12 12:13:08;;;;;;;80.05;12.55;;;;;;;;;;5021146;28;20493;-73
2023/01/12 12:15:39;;;;;;;83.88;11.13;;;;;;;;;;5022372;28;20467;-74
2023/01/12 12:18:16;;;;;;;75.80;10.80;;;;;;;;;;5002022;28;20045;-73
2023/01/12 12:21:00;;;;;;;68.55;10.23;;;;;;;;;;5000671;28;20249;-73
2023/01/12 12:23:34;;;;;;;69.53;10.02;;;;;;;;;;5021966;28;20040;-74
2023/01/12 12:26:06;;;;;;;64.65;10.43;;;;;;;;;;5021576;28;20059;-73
2023/01/12 12:28:37;;;;;;;97.32;12.77;;;;;;;;;;5016247;28;20985;-74
2023/01/12 12:31:03;;;;;;;85.43;11.77;;;;;;;;;;4999836;28;20060;-73
2023/01/12 12:33:40;;;;;;;82.47;12.07;;;;;;;;;;5002183;28;20033;-74
2023/01/12 12:36:17;;;;;;;82.10;10.95;;;;;;;;;;5000037;28;20109;-72
2023/01/12 12:38:45;;;;;;;91.90;11.82;;;;;;;;;;5002379;28;20724;-73
2023/01/12 12:47:19;;;;;;;76.55;12.32;;;;;;;;;;5021622;28;20021;-73
2023/01/12 12:49:45;;;;;;;83.20;13.18;;;;;;;;;;5021793;28;20060;-73
2023/01/12 12:52:11;;;;;;;79.88;11.00;;;;;;;;;;5021432;28;20280;-73
2023/01/12 12:54:36;;;;;;;74.50;10.93;;;;;;;;;;5021614;28;20036;-74
2023/01/12 12:57:02;;;;;;;79.38;11.88;;;;;;;;;;5024588;28;20612;-72
2023/01/12 12:59:31;;;;;;;69.22;9.23;;;;;;;;;;5024763;28;20357;-73
2023/01/12 13:02:00;;;;;;;67.18;10.32;;;;;;;;;;5023908;28;20051;-72
2023/01/12 13:04:41;;;;;;;71.07;11.18;;;;;;;;;;5024861;28;20040;-72
2023/01/12 13:07:09;;;;;;;75.35;11.60;;;;;;;;;;5024704;28;20029;-73
2023/01/12 13:09:35;;;;;;;73.45;10.63;;;;;;;;;;5024670;28;20079;-73
2023/01/12 13:12:03;;;;;;;85.00;11.15;;;;;;;;;;5024803;28;20071;-72
2023/01/12 13:14:36;;;;;;;77.13;10.77;;;;;;;;;;5024302;28;20033;-72
2023/01/12 13:17:07;;;;;;;89.28;12.00;;;;;;;;;;5024020;28;20030;-72
2023/01/12 13:19:43;;;;;;;84.88;10.65;;;;;;;;;;5023851;28;20040;-72
2023/01/12 13:22:17;;;;;;;73.20;10.55;;;;;;;;;;5024500;28;20063;-72
2023/01/12 13:24:43;;;;;;;77.72;10.35;;;;;;;;;;5022563;28;20036;-72
2023/01/12 13:27:27;;;;;;;67.00;10.30;;;;;;;;;;5022317;28;20061;-72
2023/01/12 13:30:13;;;;;;;68.50;9.40;;;;;;;;;;5015892;28;20033;-72
2023/01/12 13:32:41;;;;;;;67.97;10.23;;;;;;;;;;5019839;28;20472;-71
2023/01/12 13:35:22;;;;;;;70.43;10.75;;;;;;;;;;5024825;28;20032;-71
2023/01/12 13:37:50;;;;;;;79.45;9.57;;;;;;;;;;5024297;28;20297;-71
2023/01/12 13:40:18;;;;;;;61.05;8.02;;;;;;;;;;5024076;28;20711;-71
2023/01/12 13:45:33;;;;;;;71.85;9.48;;;;;;;;;;5021271;28;20651;-71
2023/01/12 13:47:58;;;;;;;67.72;9.27;;;;;;;;;;5014659;28;20037;-72
2023/01/12 13:50:26;;;;;;;55.70;9.90;;;;;;;;;;5014242;28;20033;-72
2023/01/12 13:52:59;;;;;;;74.07;9.90;;;;;;;;;;5022084;28;20041;-71
2023/01/12 13:55:29;;;;;;;63.92;8.20;;;;;;;;;;5006279;28;20231;-72
2023/01/12 13:57:55;;;;;;;68.65;9.23;;;;;;;;;;5004128;28;20581;-72
2023/01/12 14:00:22;;;;;;;74.43;10.25;;;;;;;;;;5008945;28;20537;-72
2023/01/12 14:02:48;;;;;;;64.25;8.40;;;;;;;;;;5008196;28;20091;-73
2023/01/12 14:05:27;;;;;;;65.18;9.35;;;;;;;;;;5023642;28;20045;-73
2023/01/12 14:07:52;;;;;;;65.90;8.90;;;;;;;;;;5007710;28;20038;-72
2023/01/12 14:10:41;;;;;;;78.30;8.80;;;;;;;;;;5007435;28;20037;-71
2023/01/12 14:13:06;;;;;;;78.95;8.82;;;;;;;;;;5021188;28;20503;-72
2023/01/12 14:18:20;;;;;;;67.35;9.65;;;;;;;;;;4997279;28;20048;-73
2023/01/12 14:20:45;;;;;;;62.45;8.32;;;;;;;;;;5006565;28;20532;-72
2023/01/12 14:23:16;;;;;;;62.35;7.88;;;;;;;;;;5010374;28;20041;-72
2023/01/12 14:25:43;;;;;;;66.10;8.60;;;;;;;;;;5010231;28;20037;-71
2023/01/12 14:28:17;;;;;;;66.57;8.68;;;;;;;;;;5008031;28;20606;-71
2023/01/12 14:30:44;;;;;;;73.85;10.02;;;;;;;;;;5009027;28;20034;-71
2023/01/12 14:33:15;;;;;;;65.88;8.45;;;;;;;;;;5007000;28;20441;-73
2023/01/12 14:35:44;;;;;;;71.22;8.75;;;;;;;;;;5006241;28;20368;-72
2023/01/12 14:38:12;;;;;;;90.53;12.32;;;;;;;;;;5039733;28;20049;-72
2023/01/12 14:40:38;;;;;;;103.47;11.35;;;;;;;;;;5007924;28;20125;-72
2023/01/12 14:46:23;;;;;;;65.53;9.45;;;;;;;;;;5006691;28;20302;-73
2023/01/12 14:48:55;;;;;;;57.15;8.10;;;;;;;;;;5010233;28;20037;-72
2023/01/12 14:51:24;;;;;;;58.47;8.00;;;;;;;;;;5038380;28;20037;-71
2023/01/12 14:54:22;;;;;;;68.20;9.32;;;;;;;;;;5007601;28;20476;-72
2023/01/12 14:56:55;;;;;;;77.30;9.73;;;;;;;;;;4983481;28;20033;-72
2023/01/12 14:59:22;;;;;;;67.40;9.10;;;;;;;;;;5005714;28;20106;-72
2023/01/12 15:01:51;;;;;;;67.75;9.02;;;;;;;;;;5005132;28;20041;-71